Time;durP1;ratioP1;P1;durP2;ratioP2;P2;SDS_P1;SDS_P2;PMS_P1;PMS_P2;Temp;Humidity;BMP_temperature;BMP_pressure;BME280_temperature;BME280_humidity;BME280_pressure;Samples;Min_cycle;Max_cycle;Signal;HPM_P1;HPM_P2
2021/12/09 00:02:26;;;;;;;14.18;6.07;;;1.50;99.90;;;;;;5050968;28;20051;-78
2021/12/09 00:04:54;;;;;;;19.30;6.55;;;1.90;99.90;;;;;;5080748;28;20423;-79
2021/12/09 00:07:20;;;;;;;16.13;7.10;;;1.00;99.90;;;;;;5073555;28;20056;-78
2021/12/09 00:09:46;;;;;;;15.55;6.80;;;1.00;99.90;;;;;;5041215;28;20052;-79
2021/12/09 00:12:11;;;;;;;15.20;6.72;;;0.90;99.90;;;;;;5093463;28;20130;-79
2021/12/09 00:14:37;;;;;;;17.77;6.55;;;0.90;99.90;;;;;;5094198;28;20047;-78
2021/12/09 00:17:07;;;;;;;19.13;6.38;;;1.20;99.90;;;;;;5092004;28;20134;-79
2021/12/09 00:19:34;;;;;;;14.00;6.60;;;0.80;99.90;;;;;;5093675;28;20119;-79
2021/12/09 00:22:02;;;;;;;18.98;6.65;;;1.10;99.90;;;;;;5078550;28;20048;-79
2021/12/09 00:24:28;;;;;;;21.48;7.20;;;0.80;99.90;;;;;;5081602;28;20048;-78
2021/12/09 00:26:54;;;;;;;17.17;6.82;;;0.70;99.90;;;;;;5074403;28;20086;-79
2021/12/09 00:29:20;;;;;;;;;;;0.70;99.90;;;;;;5093618;28;20055;-78
2021/12/09 00:31:48;;;;;;;17.45;6.80;;;0.80;99.90;;;;;;5088141;28;19924;-79
2021/12/09 00:34:15;;;;;;;15.05;7.25;;;0.60;99.90;;;;;;5090056;28;20047;-78
2021/12/09 00:36:56;;;;;;;21.00;7.03;;;0.90;99.90;;;;;;5083878;28;20167;-79
2021/12/09 00:39:23;;;;;;;13.85;7.47;;;0.70;99.90;;;;;;5072621;28;20058;-78
2021/12/09 00:41:48;;;;;;;22.30;6.75;;;0.60;99.90;;;;;;5085567;28;20053;-78
2021/12/09 00:44:14;;;;;;;15.23;6.60;;;0.70;99.90;;;;;;5053466;28;20078;-78
2021/12/09 00:46:40;;;;;;;17.92;6.97;;;0.60;99.90;;;;;;5051163;28;20036;-78
2021/12/09 00:49:07;;;;;;;19.23;8.40;;;1.30;99.90;;;;;;5051703;28;20056;-79
2021/12/09 00:51:33;;;;;;;16.92;7.07;;;0.60;99.90;;;;;;5052848;28;20045;-78
2021/12/09 00:53:58;;;;;;;15.50;7.80;;;0.60;99.90;;;;;;5069275;28;20052;-78
2021/12/09 00:56:25;;;;;;;22.40;7.80;;;0.60;99.90;;;;;;5068896;28;20094;-78
2021/12/09 00:58:51;;;;;;;21.80;8.18;;;0.60;99.90;;;;;;5072470;28;20052;-78
2021/12/09 01:01:17;;;;;;;;;;;0.60;99.90;;;;;;5082531;28;20066;-78
2021/12/09 01:03:43;;;;;;;18.95;7.82;;;1.30;99.90;;;;;;5077177;28;19920;-78
2021/12/09 01:06:10;;;;;;;15.52;7.90;;;0.50;99.90;;;;;;5071535;28;20084;-78
2021/12/09 01:08:36;;;;;;;21.00;8.05;;;0.50;99.90;;;;;;5069121;28;20189;-78
2021/12/09 01:11:03;;;;;;;;;;;0.50;99.90;;;;;;5069451;28;20070;-78
2021/12/09 01:13:29;;;;;;;15.30;7.97;;;0.70;99.90;;;;;;5061074;28;19925;-78
2021/12/09 01:15:55;;;;;;;17.60;7.95;;;0.50;99.90;;;;;;5067866;28;20052;-78
2021/12/09 01:18:20;;;;;;;;;;;1.30;99.90;;;;;;5082796;28;20056;-78
2021/12/09 01:20:46;;;;;;;20.10;8.32;;;1.00;99.90;;;;;;5089408;28;19927;-79
2021/12/09 01:23:12;;;;;;;20.67;8.57;;;0.40;99.90;;;;;;5066413;28;20054;-78
2021/12/09 01:25:38;;;;;;;;;;;0.90;99.90;;;;;;5068870;28;20060;-78
2021/12/09 01:28:20;;;;;;;24.27;8.50;;;0.70;99.90;;;;;;5068949;28;19924;-79
2021/12/09 01:30:50;;;;;;;17.48;8.52;;;1.20;99.90;;;;;;5068017;28;20059;-78
2021/12/09 01:33:15;;;;;;;16.63;8.93;;;0.40;99.90;;;;;;5051275;28;20075;-78
2021/12/09 01:35:47;;;;;;;16.65;8.35;;;1.00;99.90;;;;;;5071725;28;20549;-78
2021/12/09 01:38:15;;;;;;;21.45;8.25;;;0.30;99.90;;;;;;5069407;28;20056;-79
2021/12/09 01:40:41;;;;;;;16.10;7.68;;;0.30;99.90;;;;;;5068102;28;20080;-79
2021/12/09 01:43:07;;;;;;;16.73;8.32;;;0.60;99.90;;;;;;5064547;28;20072;-78
2021/12/09 01:45:33;;;;;;;;;;;0.30;99.90;;;;;;5050743;28;20051;-78
2021/12/09 01:47:59;;;;;;;29.02;9.30;;;0.40;99.90;;;;;;5051406;28;19921;-78
2021/12/09 01:50:26;;;;;;;18.02;8.68;;;0.30;99.90;;;;;;5051714;28;20470;-79
2021/12/09 01:52:52;;;;;;;18.58;8.70;;;0.30;99.90;;;;;;5069067;28;20131;-79
2021/12/09 01:55:20;;;;;;;22.27;9.27;;;0.20;99.90;;;;;;5061956;28;20181;-79
2021/12/09 01:57:50;;;;;;;20.38;9.27;;;0.20;99.90;;;;;;5088395;28;20278;-79
2021/12/09 02:00:20;;;;;;;22.08;9.15;;;0.30;99.90;;;;;;5078957;28;20095;-78
2021/12/09 02:02:46;;;;;;;17.85;8.23;;;0.50;99.90;;;;;;5071374;28;20053;-78
2021/12/09 02:05:13;;;;;;;18.90;8.50;;;1.10;99.90;;;;;;5073131;28;20401;-78
2021/12/09 02:07:40;;;;;;;18.65;8.88;;;0.30;99.90;;;;;;5065790;28;20552;-79
2021/12/09 02:10:07;;;;;;;;;;;0.20;99.90;;;;;;5072618;28;20040;-78
2021/12/09 02:12:34;;;;;;;20.15;9.07;;;0.20;99.90;;;;;;5071299;28;19920;-78
2021/12/09 02:15:00;;;;;;;22.08;9.38;;;0.20;99.90;;;;;;5055548;28;20131;-79
2021/12/09 02:17:31;;;;;;;28.98;8.93;;;0.20;99.90;;;;;;5072457;28;20088;-79
2021/12/09 02:19:59;;;;;;;20.95;9.30;;;0.20;99.90;;;;;;5093178;28;20060;-78
2021/12/09 02:22:27;;;;;;;19.92;8.80;;;0.20;99.90;;;;;;5091877;28;20044;-78
2021/12/09 02:24:55;;;;;;;20.35;9.65;;;0.60;99.90;;;;;;5092392;28;20052;-79
2021/12/09 02:27:23;;;;;;;20.10;8.32;;;0.10;99.90;;;;;;5077910;28;20084;-78
2021/12/09 02:29:50;;;;;;;21.52;9.10;;;0.10;99.90;;;;;;5055202;28;20048;-78
2021/12/09 02:32:16;;;;;;;21.77;8.57;;;0.10;99.90;;;;;;5085758;28;20058;-78
2021/12/09 02:34:42;;;;;;;22.23;8.95;;;0.10;99.90;;;;;;5058526;28;20393;-78
2021/12/09 02:37:10;;;;;;;20.13;10.00;;;1.10;99.90;;;;;;5081504;28;20049;-78
2021/12/09 02:39:36;;;;;;;23.25;9.73;;;0.10;99.90;;;;;;5071501;28;20494;-79
2021/12/09 02:42:02;;;;;;;26.63;10.65;;;0.10;99.90;;;;;;5055342;28;20048;-78
2021/12/09 02:44:28;;;;;;;19.27;9.65;;;0.00;99.90;;;;;;5038733;28;20040;-79
2021/12/09 02:46:55;;;;;;;19.15;8.80;;;0.10;99.90;;;;;;5069552;28;20143;-78
2021/12/09 02:49:27;;;;;;;17.17;8.48;;;0.00;99.90;;;;;;5060929;28;20045;-79
2021/12/09 02:51:54;;;;;;;20.90;8.90;;;0.00;99.90;;;;;;5071917;28;20097;-79
2021/12/09 02:54:21;;;;;;;24.60;10.93;;;0.00;99.90;;;;;;5069493;28;20059;-78
2021/12/09 02:56:50;;;;;;;23.92;9.88;;;0.00;99.90;;;;;;5090971;28;20044;-79
2021/12/09 02:59:15;;;;;;;21.58;9.75;;;0.40;99.90;;;;;;5092362;28;20051;-78
2021/12/09 03:02:06;;;;;;;23.88;9.90;;;0.00;99.90;;;;;;5072956;28;20090;-78
2021/12/09 03:04:46;;;;;;;22.77;11.13;;;0.00;99.90;;;;;;5063079;28;20106;-78
2021/12/09 03:07:24;;;;;;;25.73;10.50;;;0.80;99.90;;;;;;5054715;28;20501;-79
2021/12/09 03:09:55;;;;;;;21.52;10.75;;;0.00;99.90;;;;;;5054061;28;20040;-78
2021/12/09 03:12:27;;;;;;;23.40;10.20;;;0.00;99.90;;;;;;5065721;28;20044;-78
2021/12/09 03:14:54;;;;;;;24.05;10.40;;;0.10;99.90;;;;;;5070638;28;20060;-78
2021/12/09 03:17:20;;;;;;;23.65;10.43;;;0.80;99.90;;;;;;5070271;28;20080;-78
2021/12/09 03:19:46;;;;;;;;;;;-0.10;99.90;;;;;;5070718;28;20044;-79
2021/12/09 03:22:12;;;;;;;24.65;10.45;;;-0.10;99.90;;;;;;5081714;28;20327;-78
2021/12/09 03:24:38;;;;;;;;;;;0.00;99.90;;;;;;5091718;28;20070;-78
2021/12/09 03:27:05;;;;;;;22.40;9.70;;;0.50;99.90;;;;;;5070229;28;20637;-79
2021/12/09 03:29:30;;;;;;;;;;;-0.10;99.90;;;;;;5075401;28;20535;-79
2021/12/09 03:32:01;;;;;;;22.90;10.23;;;-0.10;99.90;;;;;;5088720;28;19927;-79
2021/12/09 03:34:29;;;;;;;22.75;10.30;;;0.10;99.90;;;;;;5070163;28;20033;-78
2021/12/09 03:36:58;;;;;;;30.58;10.82;;;0.00;99.90;;;;;;5069094;28;20188;-78
2021/12/09 03:39:28;;;;;;;23.33;10.27;;;-0.20;99.90;;;;;;5048153;28;20060;-78
2021/12/09 03:41:58;;;;;;;28.98;11.57;;;-0.20;99.90;;;;;;5090619;28;20044;-78
2021/12/09 03:44:27;;;;;;;32.95;12.05;;;-0.10;99.90;;;;;;5079124;28;20044;-79
2021/12/09 03:46:55;;;;;;;27.35;11.90;;;-0.20;99.90;;;;;;5084430;28;20069;-78
2021/12/09 03:49:23;;;;;;;28.23;11.00;;;-0.20;99.90;;;;;;5060653;28;20078;-78
2021/12/09 03:51:49;;;;;;;25.55;11.13;;;-0.20;99.90;;;;;;5072445;28;20101;-78
2021/12/09 03:54:15;;;;;;;;;;;-0.20;99.90;;;;;;5063043;28;20122;-78
2021/12/09 03:56:41;;;;;;;25.85;10.48;;;-0.20;99.90;;;;;;5075079;28;20019;-78
2021/12/09 03:59:08;;;;;;;20.70;10.45;;;-0.30;99.90;;;;;;5070394;28;20048;-78
2021/12/09 04:01:35;;;;;;;25.45;11.63;;;-0.30;99.90;;;;;;5076181;28;20152;-78
2021/12/09 04:04:01;;;;;;;31.83;13.00;;;-0.10;99.90;;;;;;5084577;28;20420;-78
2021/12/09 04:06:29;;;;;;;26.98;11.68;;;-0.30;99.90;;;;;;5073291;28;20040;-78
2021/12/09 04:08:58;;;;;;;28.05;12.23;;;0.60;99.90;;;;;;5089980;28;20040;-78
2021/12/09 04:11:24;;;;;;;27.48;11.30;;;-0.30;99.90;;;;;;5075317;28;20051;-78
2021/12/09 04:13:50;;;;;;;28.35;11.57;;;-0.30;99.90;;;;;;5070298;28;20123;-80
2021/12/09 04:16:16;;;;;;;31.58;11.63;;;-0.30;99.90;;;;;;5071980;28;20188;-78
2021/12/09 04:18:45;;;;;;;26.25;11.35;;;-0.30;99.90;;;;;;5089826;28;20059;-78
2021/12/09 04:21:12;;;;;;;34.53;11.70;;;-0.40;99.90;;;;;;5090942;28;20044;-78
2021/12/09 04:23:38;;;;;;;37.72;12.90;;;-0.40;99.90;;;;;;5074393;28;20058;-78
2021/12/09 04:26:04;;;;;;;29.60;12.05;;;-0.40;99.90;;;;;;5073149;28;20893;-78
2021/12/09 04:28:30;;;;;;;29.17;12.57;;;0.60;99.90;;;;;;5068830;28;20430;-78
2021/12/09 04:30:56;;;;;;;29.88;12.43;;;-0.40;99.90;;;;;;5091905;28;20043;-78
2021/12/09 04:33:22;;;;;;;29.55;12.60;;;-0.40;99.90;;;;;;5104046;28;20127;-78
2021/12/09 04:35:48;;;;;;;27.17;11.45;;;-0.40;99.90;;;;;;5081352;28;20481;-78
2021/12/09 04:38:14;;;;;;;35.33;12.75;;;-0.40;99.90;;;;;;5073699;28;20155;-78
2021/12/09 04:40:40;;;;;;;23.83;11.68;;;-0.30;99.90;;;;;;5081042;28;20449;-78
2021/12/09 04:43:06;;;;;;;33.40;12.70;;;-0.40;99.90;;;;;;5059895;28;20079;-78
2021/12/09 04:45:34;;;;;;;31.52;14.32;;;-0.40;99.90;;;;;;5070148;28;20043;-78
2021/12/09 04:48:00;;;;;;;32.80;13.20;;;-0.30;99.90;;;;;;5069867;28;20053;-78
2021/12/09 04:50:26;;;;;;;29.05;12.98;;;-0.30;99.90;;;;;;5059321;28;20047;-78
2021/12/09 04:52:53;;;;;;;32.05;12.65;;;-0.30;99.90;;;;;;5111243;28;20043;-78
2021/12/09 04:55:18;;;;;;;29.33;12.35;;;-0.30;99.90;;;;;;5076108;28;20201;-78
2021/12/09 04:57:44;;;;;;;31.52;12.40;;;0.50;99.90;;;;;;5043269;28;20148;-78
2021/12/09 05:00:15;;;;;;;26.45;12.55;;;-0.30;99.90;;;;;;5092037;28;20043;-78
2021/12/09 05:03:01;;;;;;;31.13;13.10;;;-0.30;99.90;;;;;;5075625;28;20132;-78
2021/12/09 05:05:28;;;;;;;32.13;13.38;;;-0.30;99.90;;;;;;5059461;28;20556;-78
2021/12/09 05:07:53;;;;;;;36.90;14.00;;;0.20;99.90;;;;;;5072552;28;20135;-78
2021/12/09 05:10:19;;;;;;;32.88;14.05;;;-0.30;99.90;;;;;;5076926;28;20130;-78
2021/12/09 05:12:45;;;;;;;41.90;14.05;;;-0.30;99.90;;;;;;5072974;28;20544;-78
2021/12/09 05:15:11;;;;;;;36.55;14.32;;;-0.20;99.90;;;;;;5055020;28;20945;-78
2021/12/09 05:17:37;;;;;;;41.22;14.38;;;-0.30;99.90;;;;;;5071667;28;20083;-78
2021/12/09 05:20:04;;;;;;;34.38;15.25;;;-0.30;99.90;;;;;;5072558;28;20048;-79
2021/12/09 05:22:31;;;;;;;32.45;14.60;;;-0.30;99.90;;;;;;5058045;28;20067;-78
2021/12/09 05:24:57;;;;;;;31.70;13.52;;;0.00;99.90;;;;;;5075820;28;20476;-78
2021/12/09 05:27:23;;;;;;;32.63;13.60;;;0.20;99.90;;;;;;5076027;28;20093;-78
2021/12/09 05:30:03;;;;;;;33.72;14.07;;;-0.30;99.90;;;;;;5093013;28;20048;-78
2021/12/09 05:32:29;;;;;;;31.00;14.05;;;-0.30;99.90;;;;;;5071734;28;20504;-78
2021/12/09 05:34:55;;;;;;;34.53;12.85;;;-0.40;99.90;;;;;;5092374;28;20055;-78
2021/12/09 05:37:23;;;;;;;31.20;13.10;;;-0.40;99.90;;;;;;5058360;28;20044;-79
2021/12/09 05:39:50;;;;;;;30.55;14.07;;;-0.40;99.90;;;;;;5055986;28;20044;-78
2021/12/09 05:42:19;;;;;;;33.70;13.75;;;-0.40;99.90;;;;;;5055257;28;20131;-78
2021/12/09 05:44:45;;;;;;;30.92;14.05;;;-0.50;99.90;;;;;;5072654;28;20131;-78
2021/12/09 05:47:12;;;;;;;33.50;15.20;;;-0.50;99.90;;;;;;5088378;28;20180;-78
2021/12/09 05:49:41;;;;;;;30.38;14.38;;;-0.50;99.90;;;;;;5092795;28;20055;-78
2021/12/09 05:52:08;;;;;;;37.08;14.40;;;0.00;99.90;;;;;;5074603;28;20480;-78
2021/12/09 05:54:34;;;;;;;35.80;15.55;;;-0.50;99.90;;;;;;5072737;28;20488;-78
2021/12/09 05:57:00;;;;;;;41.47;15.73;;;-0.50;99.90;;;;;;5038455;28;20505;-78
2021/12/09 05:59:26;;;;;;;39.17;15.07;;;-0.50;99.90;;;;;;5070123;28;20056;-78
2021/12/09 06:01:52;;;;;;;;;;;-0.50;99.90;;;;;;5074378;28;20126;-78
2021/12/09 06:04:19;;;;;;;40.75;15.45;;;-0.50;99.90;;;;;;5075416;28;20064;-79
2021/12/09 06:06:45;;;;;;;42.10;14.93;;;-0.50;99.90;;;;;;5092577;28;20055;-79
2021/12/09 06:09:11;;;;;;;36.13;14.90;;;-0.60;99.90;;;;;;5043178;28;20040;-78
2021/12/09 06:11:40;;;;;;;32.78;14.68;;;-0.60;99.90;;;;;;5055616;28;20174;-78
2021/12/09 06:14:06;;;;;;;31.95;14.95;;;-0.60;99.90;;;;;;5071930;28;20055;-78
2021/12/09 06:16:33;;;;;;;40.63;15.77;;;-0.70;99.90;;;;;;5054518;28;20185;-78
2021/12/09 06:18:59;;;;;;;41.25;16.40;;;-0.70;99.90;;;;;;5054416;28;20181;-78
2021/12/09 06:21:27;;;;;;;47.55;16.55;;;-0.40;99.90;;;;;;5072501;28;20133;-78
2021/12/09 06:23:54;;;;;;;41.28;16.98;;;-0.70;99.90;;;;;;5076198;28;20052;-79
2021/12/09 06:26:21;;;;;;;47.58;18.35;;;-0.70;99.90;;;;;;5071494;28;20040;-79
2021/12/09 06:28:47;;;;;;;41.75;17.02;;;-0.70;99.90;;;;;;5071821;28;20059;-79
2021/12/09 06:31:13;;;;;;;43.65;17.63;;;-0.50;99.90;;;;;;5053920;28;20044;-79
2021/12/09 06:33:39;;;;;;;;;;;-0.60;99.90;;;;;;5071871;28;20060;-79
2021/12/09 06:36:05;;;;;;;39.05;17.35;;;-0.60;99.90;;;;;;5071805;28;20318;-79
2021/12/09 06:38:32;;;;;;;46.22;19.27;;;-0.60;99.90;;;;;;5071964;28;20095;-79
2021/12/09 06:40:58;;;;;;;46.10;18.42;;;-0.60;99.90;;;;;;5072262;28;20059;-79
2021/12/09 06:43:24;;;;;;;46.75;17.98;;;-0.60;99.90;;;;;;5072518;28;20048;-79
2021/12/09 06:45:55;;;;;;;44.35;18.90;;;-0.20;99.90;;;;;;5054451;28;20493;-79
2021/12/09 06:48:21;;;;;;;43.30;17.70;;;-0.60;99.90;;;;;;5081179;28;20132;-79
2021/12/09 06:50:48;;;;;;;43.17;19.08;;;-0.50;99.90;;;;;;5062824;28;20051;-79
2021/12/09 06:53:14;;;;;;;;;;;-0.60;99.90;;;;;;5078690;28;20047;-79
2021/12/09 06:55:41;;;;;;;42.03;17.50;;;-0.30;99.90;;;;;;5084124;28;19974;-79
2021/12/09 06:58:07;;;;;;;42.28;17.30;;;-0.60;99.90;;;;;;5074909;28;20040;-79
2021/12/09 07:00:35;;;;;;;46.95;17.27;;;-0.60;99.90;;;;;;5060964;28;20040;-79
2021/12/09 07:03:02;;;;;;;39.08;17.52;;;-0.60;99.90;;;;;;5074843;28;20059;-79
2021/12/09 07:05:29;;;;;;;43.03;17.23;;;-0.60;99.90;;;;;;5077641;28;20073;-79
2021/12/09 07:07:56;;;;;;;43.15;17.58;;;-0.60;99.90;;;;;;5095754;28;20062;-79
2021/12/09 07:10:23;;;;;;;45.47;17.10;;;-0.60;99.90;;;;;;5077794;28;20047;-79
2021/12/09 07:12:50;;;;;;;48.83;17.65;;;-0.60;99.90;;;;;;5078672;28;20090;-79
2021/12/09 07:15:17;;;;;;;45.75;18.65;;;0.00;99.90;;;;;;5093926;28;20125;-79
2021/12/09 07:17:43;;;;;;;38.95;18.25;;;-0.30;99.90;;;;;;5077583;28;20059;-79
2021/12/09 07:20:10;;;;;;;;;;;-0.30;99.90;;;;;;5095266;28;20052;-79
2021/12/09 07:22:36;;;;;;;43.50;16.27;;;-0.50;99.90;;;;;;5065330;28;19936;-79
2021/12/09 07:25:03;;;;;;;44.20;16.63;;;-0.60;99.90;;;;;;5064496;28;20118;-79
2021/12/09 07:27:29;;;;;;;41.25;16.00;;;-0.60;99.90;;;;;;5086564;27;20879;-79
2021/12/09 07:29:55;;;;;;;41.90;17.40;;;-0.50;99.90;;;;;;5062789;28;20135;-79
2021/12/09 07:32:20;;;;;;;47.88;17.35;;;-0.60;99.90;;;;;;5091382;27;20051;-79
2021/12/09 07:34:46;;;;;;;44.70;17.30;;;-0.60;99.90;;;;;;5093395;28;20055;-79
2021/12/09 07:37:12;;;;;;;39.83;16.30;;;-0.50;99.90;;;;;;5084705;28;20122;-80
2021/12/09 07:39:38;;;;;;;48.53;17.23;;;-0.50;99.90;;;;;;5078268;28;20048;-79
2021/12/09 07:42:04;;;;;;;42.42;17.88;;;-0.50;99.90;;;;;;5077464;28;20497;-79
2021/12/09 07:44:30;;;;;;;;;;;-0.50;99.90;;;;;;5086471;28;20040;-79
2021/12/09 07:46:57;;;;;;;45.42;17.00;;;-0.50;99.90;;;;;;5079829;28;19920;-79
2021/12/09 07:49:24;;;;;;;39.85;16.48;;;-0.50;99.90;;;;;;5061380;28;20071;-79
2021/12/09 07:51:51;;;;;;;41.80;16.25;;;-0.50;99.90;;;;;;5095108;28;20506;-79
2021/12/09 07:54:17;;;;;;;43.92;16.02;;;0.70;99.90;;;;;;5081469;28;20040;-79
2021/12/09 07:56:44;;;;;;;41.42;16.95;;;-0.50;99.90;;;;;;5054519;28;20477;-79
2021/12/09 07:59:11;;;;;;;34.97;15.32;;;0.80;99.90;;;;;;5083303;28;20055;-79
2021/12/09 08:01:38;;;;;;;44.42;16.02;;;-0.20;99.90;;;;;;5060327;28;20048;-79
2021/12/09 08:04:04;;;;;;;41.15;15.98;;;0.30;99.90;;;;;;5093740;28;20503;-79
2021/12/09 08:06:30;;;;;;;44.03;16.42;;;0.40;99.90;;;;;;5061829;28;20126;-79
2021/12/09 08:08:55;;;;;;;42.72;16.40;;;0.10;99.90;;;;;;5081151;28;20122;-79
2021/12/09 08:11:21;;;;;;;38.50;16.35;;;-0.50;99.90;;;;;;5057995;28;20051;-79
2021/12/09 08:13:49;;;;;;;41.78;14.85;;;-0.50;99.90;;;;;;5062711;28;20070;-79
2021/12/09 08:16:16;;;;;;;38.30;14.05;;;-0.50;99.90;;;;;;5056262;28;20075;-79
2021/12/09 08:18:56;;;;;;;39.15;14.68;;;-0.50;99.90;;;;;;5056247;28;20051;-79
2021/12/09 08:21:27;;;;;;;43.00;14.68;;;-0.50;99.90;;;;;;5073495;28;20074;-79
2021/12/09 08:23:53;;;;;;;43.55;15.07;;;-0.50;99.90;;;;;;5074056;28;20117;-79
2021/12/09 08:26:21;;;;;;;43.75;15.60;;;0.20;99.90;;;;;;5063821;28;20121;-79
2021/12/09 08:28:47;;;;;;;31.27;14.60;;;-0.50;99.90;;;;;;5091037;28;20135;-79
2021/12/09 08:31:13;;;;;;;;;;;0.90;99.90;;;;;;5076452;28;20068;-79
2021/12/09 08:33:38;;;;;;;40.95;16.15;;;-0.40;99.90;;;;;;5079892;28;19935;-79
2021/12/09 08:36:04;;;;;;;45.78;16.95;;;-0.10;99.90;;;;;;5074758;28;20052;-79
2021/12/09 08:38:30;;;;;;;50.20;16.70;;;-0.10;99.90;;;;;;5039956;28;20519;-79
2021/12/09 08:40:56;;;;;;;44.55;16.75;;;0.60;99.90;;;;;;5086450;28;20083;-79
2021/12/09 08:43:23;;;;;;;37.75;15.80;;;-0.20;99.90;;;;;;5093223;28;20047;-79
2021/12/09 08:45:50;;;;;;;36.92;15.60;;;0.40;99.90;;;;;;5087463;28;20126;-79
2021/12/09 08:48:16;;;;;;;40.92;15.43;;;-0.10;99.90;;;;;;5072226;28;20861;-79
2021/12/09 08:50:44;;;;;;;37.13;15.50;;;0.00;99.90;;;;;;5089394;28;20047;-79
2021/12/09 08:53:13;;;;;;;42.15;14.75;;;0.00;99.90;;;;;;5089966;28;20414;-79
2021/12/09 08:55:40;;;;;;;42.88;15.68;;;0.00;99.90;;;;;;5074755;28;20137;-79
2021/12/09 08:58:08;;;;;;;39.13;14.95;;;0.00;99.90;;;;;;5078764;28;20232;-79
2021/12/09 09:00:35;;;;;;;44.55;15.05;;;0.00;99.90;;;;;;5070553;28;21392;-79
2021/12/09 09:03:01;;;;;;;41.90;15.68;;;0.10;99.90;;;;;;5096446;28;20087;-79
2021/12/09 09:05:28;;;;;;;34.38;14.10;;;0.30;99.90;;;;;;5072082;28;20044;-79
2021/12/09 09:07:55;;;;;;;42.38;14.48;;;0.20;99.90;;;;;;5072038;28;20055;-80
2021/12/09 09:10:24;;;;;;;38.08;13.75;;;0.20;99.90;;;;;;5053448;28;20047;-79
2021/12/09 09:12:50;;;;;;;44.22;14.48;;;0.20;99.90;;;;;;5055504;28;20378;-79
2021/12/09 09:15:18;;;;;;;34.50;13.65;;;0.30;99.90;;;;;;5071530;28;20064;-79
2021/12/09 09:17:45;;;;;;;33.78;14.93;;;0.30;99.90;;;;;;5070055;28;20051;-79
2021/12/09 09:20:14;;;;;;;29.85;13.98;;;0.40;99.90;;;;;;5072456;28;20125;-77
2021/12/09 09:22:41;;;;;;;34.00;14.10;;;0.60;99.90;;;;;;5057006;28;20113;-77
2021/12/09 09:25:09;;;;;;;40.80;15.65;;;0.50;99.90;;;;;;5072174;28;20048;-77
2021/12/09 09:27:35;;;;;;;30.48;12.40;;;0.60;99.90;;;;;;5055735;28;20135;-77
2021/12/09 09:30:05;;;;;;;25.65;10.80;;;0.70;99.90;;;;;;5072003;28;20036;-77
2021/12/09 09:32:32;;;;;;;29.17;11.35;;;0.70;99.90;;;;;;5066567;28;20060;-77
2021/12/09 09:34:58;;;;;;;;;;;0.80;99.90;;;;;;5069455;28;20493;-77
2021/12/09 09:37:24;;;;;;;21.42;9.57;;;0.80;99.90;;;;;;5077903;28;19924;-78
2021/12/09 09:39:50;;;;;;;19.15;9.25;;;1.30;99.90;;;;;;5082966;28;20502;-77
2021/12/09 09:42:32;;;;;;;;;;;1.00;99.90;;;;;;5085030;28;20116;-77
2021/12/09 09:44:58;;;;;;;24.50;8.48;;;2.10;99.90;;;;;;5073844;28;20050;-78
2021/12/09 09:47:29;;;;;;;17.67;7.95;;;1.30;99.90;;;;;;5076089;28;20127;-80
2021/12/09 09:49:57;;;;;;;21.83;8.57;;;2.00;99.90;;;;;;5065079;28;20040;-78
2021/12/09 09:52:23;;;;;;;22.13;7.60;;;1.70;99.90;;;;;;5082033;28;20070;-85
2021/12/09 09:54:51;;;;;;;25.38;8.32;;;1.30;99.90;;;;;;5070068;28;20086;-81
2021/12/09 09:57:16;;;;;;;19.60;8.70;;;1.90;99.90;;;;;;5082652;28;20081;-83
2021/12/09 09:59:42;;;;;;;18.40;8.32;;;1.40;99.90;;;;;;5071592;28;20048;-83
2021/12/09 10:02:10;;;;;;;17.92;7.40;;;2.30;99.90;;;;;;5053787;28;20507;-83
2021/12/09 10:04:57;;;;;;;22.15;7.10;;;1.50;99.90;;;;;;5072009;28;20083;-83
2021/12/09 10:07:24;;;;;;;18.38;7.13;;;1.60;99.90;;;;;;5076025;28;20044;-83
2021/12/09 10:09:50;;;;;;;21.27;7.13;;;1.60;99.90;;;;;;5091810;28;20043;-83
2021/12/09 10:12:16;;;;;;;16.52;7.35;;;1.80;99.90;;;;;;5092448;28;20051;-83
2021/12/09 10:14:48;;;;;;;16.83;6.65;;;1.80;99.90;;;;;;5092235;28;20051;-84
2021/12/09 10:17:20;;;;;;;20.55;7.45;;;1.80;99.90;;;;;;5063824;28;20094;-83
2021/12/09 10:20:03;;;;;;;16.23;6.82;;;2.20;99.90;;;;;;5071592;28;20066;-84
2021/12/09 10:22:32;;;;;;;19.02;7.38;;;1.90;99.90;;;;;;5058061;28;20060;-83
2021/12/09 10:24:59;;;;;;;15.52;6.50;;;2.00;99.90;;;;;;5059367;28;20509;-83
2021/12/09 10:27:29;;;;;;;15.35;6.55;;;2.10;99.90;;;;;;5075871;28;20060;-84
2021/12/09 10:30:12;;;;;;;19.10;6.18;;;2.10;99.90;;;;;;5074892;28;20087;-83
2021/12/09 10:32:39;;;;;;;21.50;6.35;;;2.20;99.90;;;;;;5090840;28;20136;-83
2021/12/09 10:35:09;;;;;;;14.13;6.72;;;2.30;99.90;;;;;;5076104;28;20052;-83
2021/12/09 10:37:38;;;;;;;24.40;7.63;;;2.30;99.90;;;;;;5064218;28;20084;-81
2021/12/09 10:40:11;;;;;;;13.95;5.90;;;2.40;99.90;;;;;;5084570;28;20051;-82
2021/12/09 10:42:47;;;;;;;20.23;6.15;;;2.50;99.90;;;;;;5063786;28;20052;-82
2021/12/09 10:45:28;;;;;;;14.20;5.97;;;2.50;99.90;;;;;;5058113;28;20340;-81
2021/12/09 10:48:06;;;;;;;14.15;6.07;;;2.60;99.90;;;;;;5073718;28;20094;-80
2021/12/09 10:50:58;;;;;;;13.43;6.00;;;2.60;99.90;;;;;;5080376;28;20044;-81
2021/12/09 11:03:41;;;;;;;16.25;6.45;;;2.60;99.90;;;;;;4884815;26;20082;-74
2021/12/09 11:06:16;;;;;;;19.52;7.43;;;2.60;99.90;;;;;;4945034;28;20047;-80
2021/12/09 11:08:53;;;;;;;15.77;7.18;;;2.60;99.90;;;;;;4941143;28;20134;-79
2021/12/09 11:11:31;;;;;;;21.65;7.72;;;2.80;99.90;;;;;;4944226;28;20050;-79
2021/12/09 11:14:00;;;;;;;20.17;8.02;;;2.70;99.90;;;;;;4966660;28;20046;-79
2021/12/09 11:16:43;;;;;;;16.45;8.50;;;2.70;99.90;;;;;;4939804;28;20504;-79
2021/12/09 11:19:10;;;;;;;21.23;8.13;;;2.80;99.90;;;;;;4936728;28;20050;-80
2021/12/09 11:21:44;;;;;;;14.15;7.10;;;2.80;99.90;;;;;;4937535;28;20058;-80
2021/12/09 11:24:14;;;;;;;18.98;8.00;;;2.80;99.90;;;;;;4945669;28;20102;-80
2021/12/09 11:29:17;;;;;;;18.08;7.22;;;2.90;99.90;;;;;;4943200;28;20126;-79
2021/12/09 11:31:54;;;;;;;15.27;7.20;;;3.00;99.90;;;;;;4936563;28;20055;-80
2021/12/09 11:34:26;;;;;;;18.40;7.03;;;3.00;99.90;;;;;;4936062;28;20503;-80
2021/12/09 11:37:10;;;;;;;16.05;7.47;;;3.00;99.90;;;;;;4947204;28;20051;-79
2021/12/09 11:39:37;;;;;;;18.02;8.10;;;3.00;99.90;;;;;;4936195;28;20043;-80
2021/12/09 11:42:14;;;;;;;19.65;7.85;;;3.00;99.90;;;;;;4935157;28;20051;-79
2021/12/09 11:44:43;;;;;;;19.25;8.32;;;3.00;99.90;;;;;;4943838;28;20055;-79
2021/12/09 11:47:09;;;;;;;18.42;8.30;;;3.00;99.90;;;;;;4946104;28;20084;-80
2021/12/09 11:49:35;;;;;;;20.10;8.20;;;3.30;99.90;;;;;;4929900;28;20575;-79
2021/12/09 11:52:01;;;;;;;18.17;7.78;;;3.00;99.90;;;;;;4935948;28;20047;-80
2021/12/09 11:54:27;;;;;;;16.17;7.50;;;3.50;99.90;;;;;;4946309;28;20047;-79
2021/12/09 11:57:13;;;;;;;18.00;7.85;;;3.40;99.90;;;;;;4953680;28;20051;-80
2021/12/09 12:11:26;;;;;;;19.05;6.95;;;3.00;99.90;;;;;;4937719;28;20490;-80
2021/12/09 12:13:59;;;;;;;17.20;7.35;;;3.00;99.90;;;;;;4956119;28;20055;-80
2021/12/09 12:16:35;;;;;;;19.08;7.50;;;3.00;99.90;;;;;;4936974;28;20066;-80
2021/12/09 12:19:10;;;;;;;17.63;7.45;;;3.00;99.90;;;;;;4934717;28;20054;-80
2021/12/09 12:27:43;;;;;;;15.73;7.88;;;3.10;99.90;;;;;;4943930;28;20059;-79
2021/12/09 12:35:51;;;;;;;20.90;7.93;;;3.10;99.90;;;;;;4932305;28;20058;-79
2021/12/09 12:41:09;;;;;;;16.08;8.57;;;3.10;99.90;;;;;;4945959;28;20462;-80
2021/12/09 12:43:43;;;;;;;16.50;8.17;;;3.10;99.90;;;;;;4954668;28;20051;-80
2021/12/09 12:46:31;;;;;;;23.00;8.70;;;3.00;99.90;;;;;;4948526;28;20374;-88
2021/12/09 12:51:37;;;;;;;22.63;8.77;;;3.00;99.90;;;;;;4945754;28;20049;-89
2021/12/09 12:54:45;;;;;;;24.45;9.88;;;3.00;99.90;;;;;;4923275;28;20125;-87
2021/12/09 12:57:14;;;;;;;27.98;9.00;;;3.20;99.90;;;;;;4953275;28;20396;-86
2021/12/09 12:59:42;;;;;;;20.90;8.95;;;3.10;99.90;;;;;;4951340;28;20519;-85
2021/12/09 13:02:19;;;;;;;21.42;9.45;;;3.20;99.90;;;;;;4936947;28;20129;-84
2021/12/09 13:05:04;;;;;;;20.48;9.00;;;3.10;99.90;;;;;;4943205;29;20113;-87
2021/12/09 13:07:43;;;;;;;19.73;9.02;;;3.10;99.90;;;;;;4937877;28;20051;-81
2021/12/09 13:13:19;;;;;;;20.85;9.38;;;3.10;99.90;;;;;;4955533;28;20054;-88
2021/12/09 13:16:08;;;;;;;22.65;9.90;;;3.10;99.90;;;;;;4949269;29;20055;-86
2021/12/09 13:21:59;;;;;;;23.75;10.82;;;3.70;99.90;;;;;;4948770;29;20083;-88
2021/12/09 13:24:53;;;;;;;24.25;11.13;;;3.20;99.90;;;;;;4936429;29;20058;-88
2021/12/09 13:27:57;;;;;;;38.67;10.18;;;3.20;99.90;;;;;;4936198;28;20062;-88
2021/12/09 13:31:22;;;;;;;24.70;10.30;;;3.20;99.90;;;;;;4938491;29;20062;-86
2021/12/09 13:55:03;;;;;;;19.85;9.20;;;3.60;99.90;;;;;;4929911;28;20528;-76
2021/12/09 13:57:40;;;;;;;22.90;8.80;;;3.40;99.90;;;;;;4955780;28;20499;-76
2021/12/09 14:00:12;;;;;;;22.92;9.43;;;3.50;99.90;;;;;;4946956;29;20047;-76
2021/12/09 14:02:38;;;;;;;22.90;9.18;;;3.50;99.90;;;;;;4953099;29;20063;-76